Flight Track Log - Related Links

Times and Time Zones

All times are in EDT time to prevent confusion due to time zone crossing. See the SWA3497 flight status page for this flight to view local times or setup timezone preferences in your user account.

Time Position Orientation Groundspeed Altitude Reporting Facility
EDT Latitude Longitude Course Direction KTS km/h feet Rate Location/Type
Sun 02:08:51 PM 38.1500 -85.7333 159° South 162 299 1.600  Level Louisville TRACON
Sun 02:10:00 PM 38.1049 -85.5815 113° Southeast  Level FlightAware Approximate
Sun 02:10:33 PM 38.0658 -85.6931 113° Southeast 237 439 4.600  Level Indianapolis Center
Sun 02:11:34 PM 38.0050 -85.6475 149° Southeast 272 504 8.400 3.317 Climbing Indianapolis Center
Sun 02:12:36 PM 38.0222 -85.5389 79° East 309 573 11.400 3.097 Climbing Indianapolis Center
Sun 02:13:38 PM 38.0361 -85.3897 83° East 360 666 14.800 3.145 Climbing Indianapolis Center
Sun 02:14:40 PM 38.0494 -85.2539 83° East 391 724 17.900 2.806 Climbing Indianapolis Center
Sun 02:15:42 PM 38.0636 -85.1172 82° East 405 750 20.600 2.585 Climbing Indianapolis Center
Sun 02:16:43 PM 38.0789 -84.9675 83° East 422 782 23.200 2.683 Climbing Indianapolis Center
Sun 02:17:45 PM 38.0950 -84.7894 83° East 433 801 26.100 2.371 Climbing Indianapolis Center
Sun 02:18:47 PM 38.1103 -84.6317 83° East 447 827 28.100 1.597 Climbing Indianapolis Center
Sun 02:19:49 PM 38.1272 -84.4661 83° East 467 864 29.400 1.258 Climbing Indianapolis Center
Sun 02:20:51 PM 38.1431 -84.2928 83° East 489 906 30.700 1.452 Climbing Indianapolis Center
Sun 02:21:53 PM 38.1597 -84.1133 83° East 505 935 32.400 1.597 Climbing Indianapolis Center
Sun 02:22:55 PM 38.1764 -83.9353 83° East 507 938 34.000 1.610 Climbing Indianapolis Center
Sun 02:23:56 PM 38.1956 -83.7228 83° East 514 953 35.700 976 Climbing Indianapolis Center
Sun 02:24:58 PM 38.2111 -83.5419 84° East 513 950 36.000 145 Climbing Indianapolis Center
Sun 02:26:00 PM 38.2222 -83.3600 85° East 513 950 36.000  Level Indianapolis Center
Sun 02:27:02 PM 38.2278 -83.1797 88° East 511 946 36.000  Level Indianapolis Center
Sun 02:28:04 PM 38.2339 -83.0008 87° East 507 938 36.000  Level Indianapolis Center
Sun 02:29:06 PM 38.2411 -82.8183 87° East 512 948 36.000  Level Indianapolis Center
Sun 02:30:08 PM 38.2436 -82.6378 89° East 509 943 36.000  Level Indianapolis Center
Sun 02:31:09 PM 38.2464 -82.4442 89° East 510 945 36.000  Level Indianapolis Center
Sun 02:32:11 PM 38.2500 -82.2647 88° East 508 941 36.000 435 Level Indianapolis Center
Sun 02:33:13 PM 38.2519 -82.0875 89° East 503 932 36.900 484 Climbing Indianapolis Center
Sun 02:34:15 PM 38.2539 -81.9081 89° East 509 943 37.000 48 Climbing Indianapolis Center
Sun 02:35:17 PM 38.2567 -81.6939 89° East 510 945 37.000  Level Indianapolis Center
Sun 02:36:19 PM 38.2581 -81.5150 89° East 511 946 37.000  Level Indianapolis Center
Sun 02:37:21 PM 38.2583 -81.3369 90° East 510 945 37.000  Level Indianapolis Center
Sun 02:38:23 PM 38.2597 -81.1592 89° East 509 943 37.000  Level Indianapolis Center
Sun 02:39:14 PM 38.2592 -81.0156 90° East 503 932 37.000  Level Washington Center
Sun 02:40:12 PM 38.2617 -80.8200 89° East 497 921 37.000  Level Washington Center
Sun 02:41:13 PM 38.2628 -80.6456 89° East 497 921 37.000  Level Washington Center
Sun 02:42:14 PM 38.2617 -80.4736 90° East 497 921 37.000  Level Washington Center
Sun 02:43:14 PM 38.2625 -80.2936 90° East 497 921 37.000  Level Washington Center
Sun 02:44:14 PM 38.2622 -80.1375 90° East 497 921 37.000  Level Washington Center
Sun 02:45:12 PM 38.2606 -79.9603 91° East 497 921 37.000  Level Washington Center
Sun 02:46:13 PM 38.2772 -79.7842 83° East 497 921 37.000 -393 Level Washington Center
Sun 02:47:14 PM 38.3125 -79.6089 76° East 497 921 36.200 -1.686 Descending Washington Center
Sun 02:48:14 PM 38.3453 -79.4358 76° East 502 930 33.600 -2.593 Descending Washington Center
Sun 02:49:12 PM 38.3844 -79.2469 75° East 502 930 31.100 -2.269 Descending Washington Center
Sun 02:50:13 PM 38.4144 -79.0842 77° East 496 919 29.100 -1.967 Descending Washington Center
Sun 02:51:14 PM 38.4461 -78.9242 76° East 475 880 27.100 -1.059 Descending Washington Center
Sun 02:52:12 PM 38.4731 -78.7742 77° East 457 847 27.000 -50 Descending Washington Center
Sun 02:53:13 PM 38.5019 -78.6242 76° East 439 813 27.000 -99 Level Washington Center
Sun 02:54:13 PM 38.5286 -78.4764 77° East 433 801 26.800 -1.041 Descending Washington Center
Sun 02:55:14 PM 38.5550 -78.3289 77° East 428 793 24.900 -1.866 Descending Washington Center
Sun 02:56:12 PM 38.5831 -78.1864 76° East 428 793 23.100 -1.881 Descending Washington Center
Sun 02:57:12 PM 38.6069 -78.0464 78° East 418 774 21.200 -1.820 Descending Washington Center
Sun 02:58:14 PM 38.6325 -77.9064 77° East 407 753 19.400 -1.100 Descending Washington Center
Sun 02:59:12 PM 38.6478 -77.7714 82° East 397 735 19.000 -202 Descending Washington Center
Sun 03:00:13 PM 38.6542 -77.6306 87° East 392 726 19.000 -457 Level Washington Center
Sun 03:00:44 PM 38.6667 -77.5500 79° East 408 756 18.300 -1.846 Descending Potomac TRACON
Sun 03:01:44 PM 38.6667 -77.4000 90° East 406 752 16.200 -1.450 Descending Potomac TRACON
Sun 03:02:44 PM 38.6833 -77.2667 81° East 384 711 15.400 -1.240 Descending Potomac TRACON
Sun 03:03:45 PM 38.6833 -77.1333 90° East 366 678 13.700 -1.785 Descending Potomac TRACON
Sun 03:04:45 PM 38.6833 -77.0000 90° East 362 671 11.800 -1.537 Descending Potomac TRACON
Sun 03:05:46 PM 38.7000 -76.8833 80° East 345 639 10.600 -876 Descending Potomac TRACON
Sun 03:06:14 PM 38.6983 -76.8392 93° East 348 644 10.500 -1.023 Descending Washington Center
Sun 03:07:14 PM 38.7078 -76.7331 83° East 324 600 9.100 -1.373 Descending Washington Center
Sun 03:08:47 PM 38.7833 -76.5833 57° Northeast 282 523 7.000 -1.170 Descending Potomac TRACON
Sun 03:09:53 PM 38.8333 -76.5333 38° Northeast 282 523 6.000 -744 Descending Potomac TRACON
Sun 03:10:48 PM 38.9000 -76.5667 339° North 281 520 5.500 -783 Descending Potomac TRACON
Sun 03:11:48 PM 38.9833 -76.6000 343° North 285 528 4.500 -750 Descending Potomac TRACON
Sun 03:12:48 PM 39.0167 -76.6833 297° West 268 496 4.000 -238 Descending Potomac TRACON
Sun 03:13:54 PM 39.0500 -76.7833 293° West 260 481 4.000  Level Potomac TRACON
Sun 03:14:55 PM 39.0833 -76.8667 297° West 250 463 4.000 -397 Level Potomac TRACON
Sun 03:15:55 PM 39.1333 -76.8833 346° North 252 467 3.200 -900 Descending Potomac TRACON
Sun 03:16:55 PM 39.1667 -76.8333 49° Northeast 219 406 2.200 -893 Descending Potomac TRACON
Sun 03:17:56 PM 39.1833 -76.7667 72° East 165 306 1.400 -793 Descending Potomac TRACON
Sun 03:18:56 PM 39.1833 -76.7167 90° East 141 261 600 -800 Descending Potomac TRACON
Sun 03:20:00 PM 39.1754 -76.6683 21° North  Level Estimated
Sun 03:27:00 PM 39.1754 -76.6683 North  Level Estimated
Sun 03:28:00 PM 39.1754 -76.6683 North  Level Estimated

Login

Don't have an account? Register now (free) for customized features, flight alerts, and more!